Time;durP1;ratioP1;P1;durP2;ratioP2;P2;SDS_P1;SDS_P2;PMS_P1;PMS_P2;Temp;Humidity;BMP_temperature;BMP_pressure;BME280_temperature;BME280_humidity;BME280_pressure;Samples;Min_cycle;Max_cycle;Signal;HPM_P1;HPM_P2
2022/12/17 13:06:35;;;;;;;58.70;32.73;;;20.10;46.90;;;;;;5089629;28;20203;-36
2022/12/17 13:09:30;;;;;;;62.93;34.60;;;20.10;46.50;;;;;;5090315;28;20231;-38
2022/12/17 13:12:35;;;;;;;69.03;34.13;;;20.20;46.70;;;;;;5090194;28;20223;-35
2022/12/17 13:15:21;;;;;;;64.63;33.40;;;20.30;46.70;;;;;;5089416;28;20211;-37
2022/12/17 13:18:06;;;;;;;57.70;32.60;;;20.30;46.60;;;;;;5089653;28;20218;-36
2022/12/17 13:20:36;;;;;;;59.97;32.33;;;20.30;46.60;;;;;;5089517;28;20741;-36
2022/12/17 13:23:15;;;;;;;55.07;32.03;;;20.30;46.60;;;;;;5090159;28;20294;-37
2022/12/17 13:25:43;;;;;;;48.43;31.13;;;20.30;46.70;;;;;;5089822;28;20198;-39
2022/12/17 13:28:29;;;;;;;54.40;31.80;;;20.30;46.70;;;;;;5089988;28;20204;-36
2022/12/17 13:31:02;;;;;;;48.93;31.13;;;20.30;46.70;;;;;;5089523;28;20660;-38
2022/12/17 13:33:39;;;;;;;55.37;30.60;;;20.30;46.70;;;;;;5100543;27;20227;-36
2022/12/17 13:36:23;;;;;;;50.73;30.43;;;20.30;46.70;;;;;;5153211;27;20196;-37
2022/12/17 13:39:00;;;;;;;54.00;30.60;;;20.30;46.60;;;;;;5153695;27;20200;-37
2022/12/17 13:41:31;;;;;;;52.10;33.93;;;20.40;46.70;;;;;;5153609;27;20589;-40
2022/12/17 13:44:04;;;;;;;46.03;30.67;;;20.40;46.60;;;;;;5153007;27;20200;-37
2022/12/17 13:46:41;;;;;;;51.00;31.93;;;20.40;46.50;;;;;;5153729;27;20298;-38
2022/12/17 13:49:18;;;;;;;48.97;31.40;;;20.30;46.40;;;;;;5153569;27;20212;-38
2022/12/17 13:51:59;;;;;;;55.40;32.87;;;20.30;46.40;;;;;;5153539;27;20276;-37
2022/12/17 13:54:28;;;;;;;52.47;32.37;;;20.30;46.30;;;;;;5153626;27;20208;-36
2022/12/17 13:57:07;;;;;;;46.00;31.67;;;20.40;46.30;;;;;;5153544;27;20189;-37
2022/12/17 13:59:36;;;;;;;48.27;31.53;;;20.30;46.20;;;;;;5153287;27;20216;-37
2022/12/17 14:02:04;;;;;;;50.40;32.37;;;20.30;46.20;;;;;;5152796;27;20239;-36
2022/12/17 14:04:33;;;;;;;54.03;31.97;;;20.30;46.10;;;;;;5152866;27;20204;-37
2022/12/17 14:07:06;;;;;;;47.40;31.87;;;20.30;46.20;;;;;;5155514;27;20564;-36
2022/12/17 14:09:38;;;;;;;49.10;32.93;;;20.30;46.20;;;;;;5156845;27;20292;-39
2022/12/17 14:15:01;;;;;;;47.27;31.10;;;20.30;45.40;;;;;;5109529;27;20553;-37
2022/12/17 19:42:02;;;;;;;66.53;43.00;;;19.10;48.70;;;;;;5129737;27;20523;-71
2022/12/17 19:44:30;;;;;;;83.57;51.17;;;13.90;37.50;;;;;;5129837;27;20278;-73
2022/12/17 19:46:59;;;;;;;155.93;88.57;;;9.80;41.90;;;;;;5129149;27;20209;-70
2022/12/17 19:49:28;;;;;;;185.37;101.13;;;7.00;47.40;;;;;;5129764;27;20214;-72
2022/12/17 19:51:56;;;;;;;201.53;100.53;;;5.20;51.20;;;;;;5129821;27;20207;-72
2022/12/17 19:54:25;;;;;;;179.70;87.87;;;3.90;52.60;;;;;;5129495;27;20560;-73
2022/12/17 19:56:54;;;;;;;166.93;75.97;;;3.00;55.60;;;;;;5129675;27;20230;-72
2022/12/17 19:59:25;;;;;;;105.47;54.20;;;2.40;56.90;;;;;;5120922;27;20194;-70
2022/12/17 20:01:53;;;;;;;106.13;53.00;;;1.80;57.40;;;;;;5108553;28;20698;-70
2022/12/17 20:04:22;;;;;;;105.73;49.97;;;1.40;59.20;;;;;;5114602;28;20603;-71
2022/12/17 20:06:51;;;;;;;94.57;46.70;;;1.00;59.80;;;;;;5129326;27;20281;-70
2022/12/17 20:09:19;;;;;;;100.87;47.90;;;0.70;60.50;;;;;;5128769;27;20202;-70
2022/12/17 20:11:48;;;;;;;98.03;45.07;;;0.50;61.30;;;;;;5129104;28;20679;-70
2022/12/17 20:14:19;;;;;;;101.90;45.67;;;0.30;63.10;;;;;;5128638;27;20290;-72
2022/12/17 20:16:52;;;;;;;86.43;40.27;;;0.10;63.50;;;;;;5127910;27;20723;-69
2022/12/17 20:19:23;;;;;;;82.93;38.30;;;-0.10;63.60;;;;;;5128684;27;20202;-72
2022/12/17 20:21:53;;;;;;;84.83;40.83;;;-0.30;64.10;;;;;;5129042;27;20297;-71
2022/12/17 20:24:22;;;;;;;71.77;36.93;;;-0.50;64.80;;;;;;5122319;27;20238;-73
2022/12/17 20:26:58;;;;;;;70.40;33.37;;;-0.60;65.40;;;;;;5108558;28;20187;-73
2022/12/17 20:29:27;;;;;;;65.47;33.73;;;-0.80;66.90;;;;;;5098707;28;20202;-72
2022/12/17 20:31:57;;;;;;;67.00;35.40;;;-0.90;66.60;;;;;;5101449;28;20207;-72
2022/12/17 20:34:26;;;;;;;66.97;34.40;;;-1.00;67.70;;;;;;5108236;28;20261;-71
2022/12/17 20:36:54;;;;;;;73.50;34.83;;;-1.10;67.20;;;;;;5108357;28;20325;-73
2022/12/17 20:39:25;;;;;;;73.93;35.87;;;-1.20;68.50;;;;;;5107854;28;20283;-72
2022/12/17 20:41:56;;;;;;;77.77;35.70;;;-1.30;69.40;;;;;;5107992;28;20289;-71
2022/12/17 20:44:24;;;;;;;72.47;35.13;;;-1.40;69.80;;;;;;5107608;28;20249;-71
2022/12/17 20:46:53;;;;;;;70.20;34.80;;;-1.40;70.60;;;;;;5107990;28;20283;-71
2022/12/17 20:49:23;;;;;;;78.13;35.20;;;-1.70;69.80;;;;;;5107818;28;20200;-71
2022/12/17 20:51:51;;;;;;;76.47;34.57;;;-1.80;71.20;;;;;;5102608;28;20208;-71
2022/12/17 20:54:20;;;;;;;72.97;35.50;;;-1.80;72.20;;;;;;5094074;28;20669;-72
2022/12/17 20:56:49;;;;;;;74.37;34.03;;;-1.80;72.40;;;;;;5094271;28;20214;-73
2022/12/17 20:59:18;;;;;;;83.27;35.53;;;-1.90;72.30;;;;;;5093470;28;20291;-71
2022/12/17 21:01:48;;;;;;;74.47;34.30;;;-2.00;73.00;;;;;;5093956;28;20228;-72
2022/12/17 21:04:24;;;;;;;65.57;32.17;;;-2.00;73.20;;;;;;5094155;28;20199;-71
2022/12/17 21:06:53;;;;;;;91.47;41.07;;;-2.10;74.90;;;;;;5094041;28;20668;-71
2022/12/17 21:09:24;;;;;;;117.27;50.33;;;-2.10;76.30;;;;;;5093745;28;20195;-71
2022/12/17 21:11:53;;;;;;;113.10;52.47;;;-2.10;76.80;;;;;;5077233;28;20250;-72
2022/12/17 21:14:21;;;;;;;105.17;47.23;;;-2.10;77.10;;;;;;5080676;28;20233;-72
2022/12/17 21:16:50;;;;;;;82.20;40.07;;;-2.20;77.20;;;;;;5086689;28;20189;-72
2022/12/17 21:19:19;;;;;;;82.73;38.30;;;-2.30;77.80;;;;;;5093703;28;20211;-72
2022/12/17 21:21:49;;;;;;;71.30;36.37;;;-2.30;79.50;;;;;;5094022;28;20324;-72
2022/12/17 21:24:18;;;;;;;74.67;37.30;;;-2.30;79.90;;;;;;5093698;28;20201;-71
2022/12/17 21:26:47;;;;;;;71.53;33.77;;;-2.40;80.20;;;;;;5093371;28;20211;-71
2022/12/17 21:29:17;;;;;;;86.27;38.73;;;-2.50;80.30;;;;;;5093465;28;20203;-71
2022/12/17 21:31:47;;;;;;;80.33;38.23;;;-2.60;81.00;;;;;;5093373;28;20563;-72
2022/12/17 21:34:20;;;;;;;70.47;33.90;;;-2.70;83.20;;;;;;5093677;28;20198;-71
2022/12/17 21:36:50;;;;;;;71.87;35.20;;;-2.60;84.60;;;;;;5093939;28;20246;-71
2022/12/17 21:39:20;;;;;;;78.33;35.33;;;-2.60;83.40;;;;;;5092605;28;20300;-71
2022/12/17 21:44:31;;;;;;;88.37;40.30;;;-2.60;85.80;;;;;;5092870;28;20244;-71
2022/12/17 21:47:00;;;;;;;72.17;34.57;;;-2.60;86.70;;;;;;5093001;28;20195;-72
2022/12/17 21:49:29;;;;;;;80.73;37.67;;;-2.50;87.30;;;;;;5093172;28;20212;-72
2022/12/17 21:51:59;;;;;;;87.10;37.77;;;-2.50;86.20;;;;;;5089728;28;20287;-73
2022/12/17 21:54:28;;;;;;;81.07;36.03;;;-2.60;85.40;;;;;;5083903;28;20213;-71
2022/12/17 21:56:56;;;;;;;83.27;38.13;;;-2.70;86.80;;;;;;5077113;28;20207;-70
2022/12/17 21:59:25;;;;;;;84.67;40.27;;;-2.80;87.90;;;;;;5090138;28;20228;-70
2022/12/17 22:01:55;;;;;;;84.07;38.53;;;-2.80;90.00;;;;;;5092664;28;20231;-70
2022/12/17 22:04:25;;;;;;;74.27;37.40;;;-2.80;90.60;;;;;;5091380;28;20201;-70
2022/12/17 22:06:53;;;;;;;77.63;36.93;;;-2.90;90.30;;;;;;5092588;28;20195;-71
2022/12/17 22:09:28;;;;;;;82.10;37.67;;;-3.00;91.00;;;;;;5092665;28;20222;-71
2022/12/17 22:14:43;;;;;;;80.97;37.37;;;-2.90;91.80;;;;;;5092731;28;20201;-70
2022/12/17 22:17:12;;;;;;;85.30;38.60;;;-2.90;91.60;;;;;;5090707;28;20200;-72
2022/12/17 22:19:40;;;;;;;74.57;34.50;;;-2.90;91.70;;;;;;5092566;28;20214;-72
2022/12/17 22:22:09;;;;;;;69.37;33.93;;;-2.90;91.10;;;;;;5092191;28;20249;-72
2022/12/17 22:24:39;;;;;;;69.73;32.10;;;-3.00;90.90;;;;;;5091755;28;20671;-72
2022/12/17 22:27:07;;;;;;;53.13;27.93;;;-3.00;91.10;;;;;;5092429;28;20198;-74
2022/12/17 22:35:09;;;;;;;64.77;29.67;;;-3.10;91.60;;;;;;5084223;28;20199;-72
2022/12/17 22:37:56;;;;;;;56.23;26.43;;;-3.10;90.80;;;;;;5075753;28;20193;-72
2022/12/17 22:40:46;;;;;;;51.20;27.27;;;-3.20;91.60;;;;;;5071766;28;20590;-72
2022/12/17 22:43:34;;;;;;;57.90;28.17;;;-3.20;91.70;;;;;;5071916;28;20197;-71
2022/12/17 22:46:23;;;;;;;50.50;25.80;;;-3.20;91.80;;;;;;5072276;28;20201;-72
2022/12/17 22:48:51;;;;;;;57.87;27.73;;;-3.30;92.00;;;;;;5071831;28;20191;-73
2022/12/17 22:51:20;;;;;;;51.97;25.53;;;-3.30;91.60;;;;;;5071601;28;20192;-71
2022/12/17 22:53:50;;;;;;;55.53;27.57;;;-3.40;92.50;;;;;;5074176;28;20237;-72
2022/12/17 22:56:20;;;;;;;47.50;24.40;;;-3.40;92.10;;;;;;5091495;28;20224;-71
2022/12/17 22:58:52;;;;;;;52.17;26.17;;;-3.50;91.60;;;;;;5091746;28;20201;-71
2022/12/17 23:01:20;;;;;;;64.27;31.67;;;-3.80;91.90;;;;;;5092051;28;20236;-70
2022/12/17 23:03:54;;;;;;;94.80;43.67;;;-3.90;92.90;;;;;;5091788;28;20205;-71
2022/12/17 23:06:23;;;;;;;91.43;41.10;;;-4.00;93.80;;;;;;5086255;28;20202;-70
2022/12/17 23:08:52;;;;;;;132.47;58.30;;;-4.00;94.40;;;;;;5102400;28;20581;-70
2022/12/17 23:11:23;;;;;;;145.20;64.13;;;-4.00;95.10;;;;;;5091202;28;20199;-71
2022/12/17 23:13:53;;;;;;;194.80;83.33;;;-4.00;95.00;;;;;;5072408;28;20209;-71
2022/12/17 23:16:22;;;;;;;216.40;94.03;;;-4.00;94.90;;;;;;5091449;28;20308;-71
2022/12/17 23:18:52;;;;;;;255.10;103.80;;;-4.00;95.20;;;;;;5090993;28;20188;-70
2022/12/17 23:21:23;;;;;;;261.57;104.23;;;-4.00;95.10;;;;;;5091627;28;20283;-70
2022/12/17 23:23:53;;;;;;;222.70;90.10;;;-4.10;95.50;;;;;;5091622;28;20227;-70
2022/12/17 23:26:25;;;;;;;234.43;96.10;;;-4.00;95.70;;;;;;5090399;28;20280;-71
2022/12/17 23:28:57;;;;;;;208.43;86.27;;;-3.90;95.90;;;;;;5091511;28;20258;-71
2022/12/17 23:31:27;;;;;;;206.77;86.90;;;-3.90;96.30;;;;;;5091554;28;20208;-70
2022/12/17 23:33:55;;;;;;;204.83;79.50;;;-3.80;96.50;;;;;;5091048;28;20200;-71
2022/12/17 23:36:25;;;;;;;190.77;74.47;;;-3.70;96.40;;;;;;5091773;28;20205;-69
2022/12/17 23:38:56;;;;;;;183.73;74.80;;;-3.70;96.60;;;;;;5091323;28;20216;-70
2022/12/17 23:41:28;;;;;;;172.00;71.63;;;-3.70;96.60;;;;;;5091226;28;20267;-70
2022/12/17 23:43:57;;;;;;;158.73;74.03;;;-3.80;97.60;;;;;;5091475;28;20655;-71
2022/12/17 23:46:27;;;;;;;151.37;66.53;;;-3.80;96.60;;;;;;5091497;28;20199;-71
2022/12/17 23:48:56;;;;;;;145.93;58.60;;;-3.70;97.40;;;;;;5090754;28;20197;-70
2022/12/17 23:51:27;;;;;;;161.30;64.43;;;-3.70;97.80;;;;;;5091427;28;20193;-71
2022/12/17 23:53:55;;;;;;;126.17;53.40;;;-3.80;97.50;;;;;;5091306;28;20197;-71
2022/12/17 23:56:28;;;;;;;127.10;52.47;;;-3.70;97.60;;;;;;5089876;28;20188;-70
2022/12/17 23:58:58;;;;;;;125.30;55.10;;;-3.70;98.00;;;;;;5091083;28;20200;-69
